Time;durP1;ratioP1;P1;durP2;ratioP2;P2;SDS_P1;SDS_P2;PMS_P1;PMS_P2;Temp;Humidity;BMP_temperature;BMP_pressure;BME280_temperature;BME280_humidity;BME280_pressure;Samples;Min_cycle;Max_cycle;Signal;HPM_P1;HPM_P2
2021/12/08 00:00:39;;;;;;;23.33;4.30;;;9.30;99.90;;;;;;4907062;29;20017;-87
2021/12/08 00:03:09;;;;;;;20.52;2.90;;;9.30;99.90;;;;;;4905463;29;20068;-88
2021/12/08 00:05:36;;;;;;;32.95;7.30;;;9.30;99.90;;;;;;4907098;29;20012;-88
2021/12/08 00:08:04;;;;;;;25.42;4.22;;;9.20;99.90;;;;;;4901601;29;20031;-87
2021/12/08 00:13:05;;;;;;;20.98;2.85;;;9.20;99.90;;;;;;4906051;29;20024;-87
2021/12/08 00:15:54;;;;;;;16.75;2.50;;;9.20;99.90;;;;;;4905903;29;20032;-94
2021/12/08 00:18:24;;;;;;;25.63;3.80;;;8.80;99.90;;;;;;4906408;29;20032;-90
2021/12/08 00:20:53;;;;;;;28.98;3.25;;;7.90;99.90;;;;;;4909328;29;20365;-93
2021/12/08 00:23:23;;;;;;;33.28;3.42;;;7.60;99.90;;;;;;4905586;29;20112;-92
2021/12/08 00:25:51;;;;;;;27.27;4.20;;;7.50;99.90;;;;;;4906897;29;20012;-92
2021/12/08 00:28:18;;;;;;;21.92;2.50;;;7.50;99.90;;;;;;4905811;29;20048;-91
2021/12/08 00:30:47;;;;;;;25.20;3.28;;;7.50;99.90;;;;;;4907056;29;20041;-90
2021/12/08 00:33:14;;;;;;;25.77;2.85;;;7.60;99.90;;;;;;4908010;29;20055;-91
2021/12/08 00:35:41;;;;;;;20.55;2.53;;;7.60;99.90;;;;;;4909277;29;20019;-92
2021/12/08 00:38:08;;;;;;;21.55;2.13;;;7.60;99.90;;;;;;4909341;29;20043;-93
2021/12/08 00:40:37;;;;;;;16.80;2.20;;;7.50;99.90;;;;;;4905701;29;20025;-93
2021/12/08 00:43:06;;;;;;;19.13;2.10;;;7.50;99.90;;;;;;4905783;29;20040;-91
2021/12/08 00:45:32;;;;;;;14.52;2.17;;;7.60;99.90;;;;;;4905295;29;20137;-91
2021/12/08 00:47:59;;;;;;;18.23;2.17;;;7.60;99.90;;;;;;4906607;29;20073;-90
2021/12/08 00:50:28;;;;;;;18.88;2.78;;;7.60;99.90;;;;;;4905124;29;20028;-90
2021/12/08 00:52:56;;;;;;;18.30;2.10;;;7.50;99.90;;;;;;4905774;29;20028;-89
2021/12/08 00:55:24;;;;;;;24.13;3.20;;;7.60;99.90;;;;;;4905704;29;20219;-90
2021/12/08 00:57:50;;;;;;;32.25;3.78;;;7.60;99.90;;;;;;4905801;29;20360;-91
2021/12/08 01:00:28;;;;;;;24.38;3.33;;;7.70;99.90;;;;;;4904195;29;20289;-92
2021/12/08 01:02:54;;;;;;;25.00;3.40;;;7.60;99.90;;;;;;4904742;29;20028;-91
2021/12/08 01:05:24;;;;;;;18.85;2.85;;;7.70;99.90;;;;;;4905488;29;20021;-92
2021/12/08 01:07:51;;;;;;;19.90;2.67;;;7.70;99.90;;;;;;4902856;29;20139;-92
2021/12/08 01:10:21;;;;;;;16.73;2.47;;;7.70;99.90;;;;;;4902805;29;20024;-93
2021/12/08 01:12:47;;;;;;;18.05;2.30;;;7.70;99.90;;;;;;4905582;29;20079;-92
2021/12/08 01:15:13;;;;;;;11.82;1.50;;;7.60;99.90;;;;;;4905220;29;20024;-89
2021/12/08 01:17:40;;;;;;;20.52;1.83;;;7.60;99.90;;;;;;4905887;29;20377;-90
2021/12/08 01:20:09;;;;;;;17.00;1.98;;;7.60;99.90;;;;;;4905563;29;20048;-90
2021/12/08 01:22:35;;;;;;;10.32;1.92;;;7.50;99.90;;;;;;4903089;29;20044;-92
2021/12/08 01:25:01;;;;;;;20.90;3.35;;;7.50;99.90;;;;;;4903067;29;20055;-92
2021/12/08 01:27:29;;;;;;;16.70;4.13;;;7.50;99.90;;;;;;4904986;29;20020;-92
2021/12/08 01:29:55;;;;;;;21.33;5.32;;;7.50;99.90;;;;;;4901449;29;20216;-92
2021/12/08 01:32:21;;;;;;;21.73;6.13;;;7.50;99.90;;;;;;4900975;29;20012;-92
2021/12/08 01:34:47;;;;;;;12.75;2.60;;;7.50;99.90;;;;;;4904202;29;20040;-91
2021/12/08 01:37:12;;;;;;;27.83;7.43;;;7.50;99.90;;;;;;4904696;29;20048;-93
2021/12/08 01:39:38;;;;;;;36.50;9.63;;;7.50;99.90;;;;;;4901518;29;20047;-92
2021/12/08 01:42:06;;;;;;;29.75;8.73;;;7.50;99.90;;;;;;4904353;29;20021;-90
2021/12/08 01:47:15;;;;;;;12.10;1.90;;;7.40;99.90;;;;;;4904629;29;20065;-89
2021/12/08 01:49:41;;;;;;;23.98;3.25;;;7.50;99.90;;;;;;4906135;29;20024;-89
2021/12/08 01:52:07;;;;;;;30.05;4.43;;;7.40;99.90;;;;;;4904377;29;20048;-89
2021/12/08 01:54:33;;;;;;;28.40;5.53;;;7.40;99.90;;;;;;4904467;29;20027;-89
2021/12/08 01:57:00;;;;;;;25.15;3.63;;;7.40;99.90;;;;;;4904951;29;20216;-89
2021/12/08 01:59:26;;;;;;;21.80;2.72;;;7.40;99.90;;;;;;4907671;29;20013;-89
2021/12/08 02:01:51;;;;;;;14.25;2.25;;;7.40;99.90;;;;;;4909904;29;20088;-91
2021/12/08 02:04:17;;;;;;;18.20;3.08;;;7.40;99.90;;;;;;4905038;29;20016;-89
2021/12/08 02:06:46;;;;;;;20.27;2.93;;;7.40;99.90;;;;;;4910440;29;20312;-89
2021/12/08 02:09:15;;;;;;;12.35;2.10;;;7.50;99.90;;;;;;4908043;29;20102;-89
2021/12/08 02:11:45;;;;;;;24.15;2.53;;;7.50;99.90;;;;;;4907600;29;20021;-89
2021/12/08 02:14:11;;;;;;;11.43;1.70;;;7.50;99.90;;;;;;4904597;29;20016;-88
2021/12/08 02:16:38;;;;;;;14.90;1.83;;;7.50;99.90;;;;;;4908842;29;20021;-88
2021/12/08 02:19:04;;;;;;;17.80;2.00;;;7.40;99.90;;;;;;4907724;29;20047;-89
2021/12/08 02:21:35;;;;;;;18.33;2.88;;;7.40;99.90;;;;;;4909777;29;20040;-88
2021/12/08 02:24:08;;;;;;;15.70;3.03;;;7.50;99.90;;;;;;4908649;29;20048;-88
2021/12/08 02:26:35;;;;;;;18.38;2.60;;;7.50;99.90;;;;;;4908978;29;20040;-90
2021/12/08 02:29:06;;;;;;;13.18;1.48;;;7.40;99.90;;;;;;4910107;29;20037;-88
2021/12/08 02:31:59;;;;;;;12.77;1.38;;;7.50;99.90;;;;;;4907950;29;20020;-89
2021/12/08 02:48:06;;;;;;;19.13;2.22;;;7.50;99.90;;;;;;4908002;29;20411;-93
2021/12/08 02:50:41;;;;;;;14.75;2.00;;;7.50;99.90;;;;;;4909988;29;20056;-93
2021/12/08 02:53:09;;;;;;;20.35;2.33;;;7.40;99.90;;;;;;4905491;29;20064;-93
2021/12/08 02:55:36;;;;;;;15.32;1.90;;;7.30;99.90;;;;;;4905954;29;20096;-91
2021/12/08 02:58:04;;;;;;;11.77;1.70;;;7.30;99.90;;;;;;4902978;29;20213;-91
2021/12/08 03:00:33;;;;;;;12.50;1.48;;;7.30;99.90;;;;;;4904503;29;20029;-90
2021/12/08 03:03:01;;;;;;;14.50;2.38;;;7.30;99.90;;;;;;4905989;29;20020;-90
2021/12/08 03:05:29;;;;;;;13.90;1.63;;;7.30;99.90;;;;;;4900363;29;20033;-89
2021/12/08 03:07:55;;;;;;;15.40;1.58;;;7.30;99.90;;;;;;4908248;29;20057;-89
2021/12/08 03:10:25;;;;;;;23.83;3.22;;;7.30;99.90;;;;;;4906163;29;20076;-89
2021/12/08 03:12:51;;;;;;;12.20;2.50;;;7.40;99.90;;;;;;4906855;29;20028;-90
2021/12/08 03:15:18;;;;;;;14.88;1.35;;;7.30;99.90;;;;;;4907264;29;20024;-93
2021/12/08 03:17:43;;;;;;;18.42;1.70;;;7.40;99.90;;;;;;4907387;29;20036;-90
2021/12/08 03:20:17;;;;;;;16.60;1.42;;;7.40;99.90;;;;;;4906616;29;20025;-89
2021/12/08 03:22:47;;;;;;;12.80;1.52;;;7.40;99.90;;;;;;4907838;29;20041;-89
2021/12/08 03:25:17;;;;;;;8.38;1.48;;;7.50;99.90;;;;;;4903288;29;20021;-89
2021/12/08 03:27:51;;;;;;;10.38;1.17;;;7.50;99.90;;;;;;4900440;29;20020;-89
2021/12/08 03:30:27;;;;;;;5.50;0.60;;;7.50;99.90;;;;;;4906828;29;20335;-89
2021/12/08 03:32:57;;;;;;;6.70;0.70;;;7.40;99.90;;;;;;4903294;29;20040;-89
2021/12/08 03:35:24;;;;;;;4.28;0.70;;;7.40;99.90;;;;;;4906138;29;20213;-89
2021/12/08 03:37:50;;;;;;;6.22;0.70;;;7.40;99.90;;;;;;4905884;29;20020;-90
2021/12/08 03:40:18;;;;;;;4.25;1.08;;;7.50;99.90;;;;;;4906096;29;20328;-90
2021/12/08 03:42:46;;;;;;;10.00;0.90;;;7.50;99.90;;;;;;4907424;29;20305;-91
2021/12/08 03:45:43;;;;;;;6.43;0.88;;;7.60;99.90;;;;;;4905505;29;20157;-91
2021/12/08 03:48:23;;;;;;;11.20;1.80;;;7.60;99.90;;;;;;4903620;29;20273;-90
2021/12/08 03:50:50;;;;;;;10.93;1.98;;;7.70;99.90;;;;;;4903861;29;20031;-92
2021/12/08 03:53:16;;;;;;;10.75;1.20;;;7.70;99.90;;;;;;4906462;29;20040;-90
2021/12/08 03:55:44;;;;;;;14.45;1.67;;;7.80;99.90;;;;;;4905569;29;20060;-89
2021/12/08 03:58:11;;;;;;;8.18;0.95;;;7.80;99.90;;;;;;4899673;29;20024;-89
2021/12/08 04:00:38;;;;;;;11.88;1.50;;;7.80;99.90;;;;;;4902165;29;20020;-89
2021/12/08 04:03:06;;;;;;;14.15;1.77;;;7.90;99.90;;;;;;4903428;29;20024;-89
2021/12/08 04:05:56;;;;;;;11.55;1.30;;;8.00;99.90;;;;;;4905361;29;20032;-89
2021/12/08 04:08:29;;;;;;;12.00;1.15;;;8.00;99.90;;;;;;4906530;29;20048;-87
2021/12/08 04:10:56;;;;;;;6.90;1.30;;;8.00;99.90;;;;;;4906790;29;20013;-88
2021/12/08 04:13:29;;;;;;;7.35;0.90;;;8.10;99.90;;;;;;4907710;29;20016;-88
2021/12/08 04:15:56;;;;;;;10.47;1.10;;;8.10;99.90;;;;;;4907109;29;20185;-88
2021/12/08 04:18:22;;;;;;;7.05;0.93;;;8.10;99.90;;;;;;4906242;29;20312;-88
2021/12/08 04:20:52;;;;;;;9.95;1.10;;;8.10;99.90;;;;;;4905391;29;20036;-88
2021/12/08 04:23:20;;;;;;;7.55;1.23;;;8.00;99.90;;;;;;4906647;29;20056;-89
2021/12/08 04:25:50;;;;;;;11.10;1.45;;;8.00;99.90;;;;;;4906010;29;20040;-88
2021/12/08 04:28:21;;;;;;;10.40;1.10;;;7.90;99.90;;;;;;4900764;29;20072;-88
2021/12/08 04:31:13;;;;;;;12.27;1.42;;;7.80;99.90;;;;;;4905938;29;20076;-88
2021/12/08 04:33:39;;;;;;;21.13;2.25;;;7.80;99.90;;;;;;4906919;29;20309;-88
2021/12/08 04:36:09;;;;;;;12.07;1.60;;;7.70;99.90;;;;;;4906080;29;20026;-88
2021/12/08 04:38:42;;;;;;;13.07;1.77;;;7.70;99.90;;;;;;4906107;29;20021;-88
2021/12/08 04:41:13;;;;;;;15.10;1.58;;;7.60;99.90;;;;;;4906572;29;20024;-88
2021/12/08 04:44:03;;;;;;;14.60;2.03;;;7.60;99.90;;;;;;4904985;29;20024;-87
2021/12/08 04:51:54;;;;;;;20.13;2.25;;;7.60;99.90;;;;;;4906003;29;19903;-87
2021/12/08 05:06:04;;;;;;;13.57;1.70;;;7.70;99.90;;;;;;4905299;29;20390;-88
2021/12/08 05:08:42;;;;;;;12.02;1.52;;;7.70;99.90;;;;;;4904183;29;20041;-89
2021/12/08 05:11:23;;;;;;;16.92;2.15;;;7.70;99.90;;;;;;4904661;29;20380;-90
2021/12/08 05:14:02;;;;;;;14.13;1.88;;;7.60;99.90;;;;;;4897061;29;20352;-89
2021/12/08 05:16:29;;;;;;;16.75;1.80;;;7.70;99.90;;;;;;4905680;29;20036;-90
2021/12/08 05:18:59;;;;;;;20.60;2.53;;;7.60;99.90;;;;;;4900124;29;20474;-92
2021/12/08 05:21:32;;;;;;;12.38;2.63;;;7.60;99.90;;;;;;4904936;29;20020;-88
2021/12/08 05:24:06;;;;;;;18.08;2.08;;;7.60;99.90;;;;;;4905267;29;20103;-89
2021/12/08 05:26:44;;;;;;;18.80;2.25;;;7.60;99.90;;;;;;4905319;29;20033;-88
2021/12/08 05:29:18;;;;;;;16.35;2.15;;;7.60;99.90;;;;;;4905839;29;20036;-88
2021/12/08 05:31:44;;;;;;;13.77;2.05;;;7.60;99.90;;;;;;4905838;29;20025;-88
2021/12/08 05:34:10;;;;;;;17.50;2.50;;;7.60;99.90;;;;;;4905968;29;20209;-88
2021/12/08 05:36:37;;;;;;;18.30;2.50;;;7.50;99.90;;;;;;4909407;29;20065;-88
2021/12/08 05:39:08;;;;;;;16.70;2.97;;;7.50;99.90;;;;;;4909445;29;20080;-88
2021/12/08 05:41:37;;;;;;;15.00;2.25;;;7.60;99.90;;;;;;4909794;29;20233;-88
2021/12/08 05:44:04;;;;;;;19.67;2.08;;;7.60;99.90;;;;;;4909827;29;20031;-88
2021/12/08 05:46:33;;;;;;;10.65;2.03;;;7.60;99.90;;;;;;4907998;29;20024;-88
2021/12/08 05:49:00;;;;;;;16.70;2.38;;;7.60;99.90;;;;;;4907320;29;20104;-88
2021/12/08 05:51:31;;;;;;;20.77;1.77;;;7.60;99.90;;;;;;4908382;29;20036;-88
2021/12/08 05:54:02;;;;;;;16.75;2.55;;;7.60;99.90;;;;;;4906439;29;20029;-88
2021/12/08 05:56:29;;;;;;;12.25;1.35;;;7.60;99.90;;;;;;4908415;29;20048;-87
2021/12/08 05:58:58;;;;;;;10.82;2.17;;;7.50;99.90;;;;;;4907363;29;20024;-87
2021/12/08 06:01:32;;;;;;;8.43;1.20;;;7.40;99.90;;;;;;4908987;29;20040;-88
2021/12/08 06:03:59;;;;;;;17.08;2.38;;;7.40;99.90;;;;;;4903252;29;20222;-88
2021/12/08 06:06:27;;;;;;;16.90;2.17;;;7.30;99.90;;;;;;4902927;29;20486;-88
2021/12/08 06:08:54;;;;;;;14.15;2.00;;;7.20;99.90;;;;;;4906566;29;20041;-88
2021/12/08 06:11:25;;;;;;;12.20;2.10;;;7.20;99.90;;;;;;4901866;29;20313;-88
2021/12/08 06:13:51;;;;;;;19.55;2.35;;;7.10;99.90;;;;;;4908848;29;20072;-88
2021/12/08 06:16:21;;;;;;;16.80;2.85;;;7.20;99.90;;;;;;4909218;29;20032;-88
2021/12/08 06:18:49;;;;;;;17.40;2.83;;;7.10;99.90;;;;;;4909161;29;20091;-88
2021/12/08 06:21:23;;;;;;;16.83;2.80;;;7.00;99.90;;;;;;4908466;29;20514;-87
2021/12/08 06:23:50;;;;;;;13.13;2.80;;;7.00;99.90;;;;;;4907027;29;20053;-88
2021/12/08 06:26:19;;;;;;;17.17;2.80;;;7.00;99.90;;;;;;4907254;29;20245;-87
2021/12/08 06:28:44;;;;;;;16.67;2.53;;;7.00;99.90;;;;;;4907181;29;20084;-88
2021/12/08 06:31:12;;;;;;;18.92;2.60;;;7.00;99.90;;;;;;4907252;29;20021;-88
2021/12/08 06:33:39;;;;;;;12.98;2.30;;;7.00;99.90;;;;;;4907103;29;20037;-87
2021/12/08 06:36:10;;;;;;;11.30;1.73;;;7.10;99.90;;;;;;4900133;29;20425;-87
2021/12/08 06:38:37;;;;;;;16.88;2.30;;;7.20;99.90;;;;;;4897469;29;20040;-87
2021/12/08 06:41:08;;;;;;;15.70;2.38;;;7.20;99.90;;;;;;4896772;29;20017;-87
2021/12/08 06:43:48;;;;;;;17.88;3.58;;;7.30;99.90;;;;;;4896787;29;20490;-86
2021/12/08 06:46:15;;;;;;;17.58;3.22;;;7.30;99.90;;;;;;4895639;29;20029;-87
2021/12/08 06:48:44;;;;;;;17.77;2.42;;;7.40;99.90;;;;;;4896896;29;20568;-87
2021/12/08 06:51:19;;;;;;;14.10;2.40;;;7.50;99.90;;;;;;4896709;29;20111;-89
2021/12/08 06:53:51;;;;;;;21.90;3.22;;;7.60;99.90;;;;;;4897044;29;20052;-87
2021/12/08 06:56:27;;;;;;;16.35;2.83;;;7.60;99.90;;;;;;4896670;29;20024;-88
2021/12/08 06:58:58;;;;;;;15.52;3.10;;;7.60;99.90;;;;;;4897954;29;20036;-88
2021/12/08 07:01:50;;;;;;;16.35;2.85;;;7.60;99.90;;;;;;4907670;29;20069;-89
2021/12/08 07:07:03;;;;;;;12.05;2.40;;;7.60;99.90;;;;;;4907857;29;20017;-87
2021/12/08 07:09:49;;;;;;;15.15;1.80;;;7.70;99.90;;;;;;4906821;29;20095;-88
2021/12/08 07:12:23;;;;;;;13.75;1.80;;;7.80;99.90;;;;;;4907620;29;20088;-88
2021/12/08 07:14:54;;;;;;;14.13;1.90;;;7.80;99.90;;;;;;4907744;29;20016;-88
2021/12/08 07:17:22;;;;;;;15.20;1.77;;;7.80;99.90;;;;;;4908139;29;20040;-88
2021/12/08 07:20:03;;;;;;;16.00;2.60;;;7.90;99.90;;;;;;4907048;29;20020;-88
2021/12/08 07:22:31;;;;;;;14.55;2.70;;;7.80;99.90;;;;;;4907328;29;20232;-86
2021/12/08 07:25:01;;;;;;;14.27;2.83;;;7.80;99.90;;;;;;4907759;29;20229;-87
2021/12/08 07:27:31;;;;;;;13.05;2.67;;;7.80;99.90;;;;;;4907671;29;20028;-87
2021/12/08 07:30:01;;;;;;;19.80;3.42;;;7.80;99.90;;;;;;4908130;29;20313;-89
2021/12/08 07:32:33;;;;;;;16.05;2.83;;;7.70;99.90;;;;;;4907795;29;20051;-88
2021/12/08 07:35:05;;;;;;;17.08;4.57;;;7.70;99.90;;;;;;4906908;29;20029;-88
2021/12/08 07:37:35;;;;;;;10.43;1.73;;;7.70;99.90;;;;;;4907857;29;20024;-88
2021/12/08 07:40:23;;;;;;;12.82;2.40;;;7.70;99.90;;;;;;4904231;29;20024;-88
2021/12/08 07:43:11;;;;;;;13.20;3.33;;;7.60;99.90;;;;;;4921845;29;20332;-88
2021/12/08 07:45:48;;;;;;;15.32;3.22;;;7.50;99.90;;;;;;4906124;29;20290;-89
2021/12/08 07:48:22;;;;;;;13.50;2.60;;;7.50;99.90;;;;;;4907608;29;20036;-88
2021/12/08 07:50:54;;;;;;;10.32;2.10;;;7.50;99.90;;;;;;4906993;29;20012;-89
2021/12/08 07:53:23;;;;;;;14.10;1.80;;;7.50;99.90;;;;;;4904511;29;20024;-91
2021/12/08 07:55:54;;;;;;;16.80;2.30;;;7.50;99.90;;;;;;4905644;29;20028;-88
2021/12/08 07:58:21;;;;;;;15.73;2.17;;;7.60;99.90;;;;;;4907533;29;20016;-88
2021/12/08 08:00:56;;;;;;;10.20;2.28;;;7.60;99.90;;;;;;4903879;29;20071;-91
2021/12/08 08:03:23;;;;;;;14.32;2.30;;;7.70;99.90;;;;;;4907529;29;20024;-89
2021/12/08 08:05:52;;;;;;;15.38;2.60;;;7.80;99.90;;;;;;4906262;29;20028;-89
2021/12/08 08:08:19;;;;;;;13.98;2.35;;;7.80;99.90;;;;;;4905704;29;20052;-90
2021/12/08 08:10:51;;;;;;;12.02;2.63;;;7.90;99.90;;;;;;4904250;29;20443;-89
2021/12/08 08:13:18;;;;;;;17.48;2.80;;;8.00;99.90;;;;;;4905376;29;20032;-91
2021/12/08 08:15:48;;;;;;;19.60;3.42;;;8.10;99.90;;;;;;4898907;29;20048;-88
2021/12/08 08:18:18;;;;;;;20.75;3.63;;;8.10;99.90;;;;;;4895068;29;20033;-89
2021/12/08 08:20:49;;;;;;;17.52;2.08;;;8.20;99.90;;;;;;4900088;29;20123;-94
2021/12/08 08:23:17;;;;;;;8.52;1.55;;;8.20;99.90;;;;;;4917797;29;20126;-92
2021/12/08 08:25:45;;;;;;;11.88;2.50;;;7.40;99.90;;;;;;4920283;29;20041;-92
2021/12/08 08:28:11;;;;;;;15.63;2.35;;;6.90;99.90;;;;;;4919443;29;20037;-92
2021/12/08 08:30:49;;;;;;;24.58;5.22;;;6.60;99.90;;;;;;4919854;29;20028;-91
2021/12/08 08:33:19;;;;;;;49.25;14.88;;;6.60;99.90;;;;;;4917626;29;20213;-89
2021/12/08 08:35:51;;;;;;;46.75;20.38;;;6.50;99.90;;;;;;4917548;29;20017;-90
2021/12/08 08:38:22;;;;;;;14.27;4.97;;;6.40;99.90;;;;;;4919487;29;20063;-92
2021/12/08 08:41:12;;;;;;;6.82;1.70;;;6.30;99.90;;;;;;4915584;29;20052;-91
2021/12/08 08:43:38;;;;;;;8.70;1.25;;;6.10;99.90;;;;;;4919136;29;20016;-89
2021/12/08 08:46:09;;;;;;;8.52;1.27;;;6.10;99.90;;;;;;4913360;29;20040;-88
2021/12/08 08:48:43;;;;;;;9.48;1.80;;;6.00;99.90;;;;;;4911876;29;20035;-88
2021/12/08 08:51:29;;;;;;;13.93;2.35;;;6.00;99.90;;;;;;4918262;29;20004;-88
2021/12/08 08:53:59;;;;;;;12.23;1.58;;;6.10;99.90;;;;;;4918175;29;20085;-89
2021/12/08 08:56:30;;;;;;;20.98;2.00;;;6.20;99.90;;;;;;4917967;29;20020;-89
2021/12/08 08:59:02;;;;;;;14.30;2.08;;;6.30;99.90;;;;;;4918283;29;20060;-89
2021/12/08 09:01:36;;;;;;;5.03;1.60;;;6.30;99.90;;;;;;4915971;29;20027;-88
2021/12/08 09:04:20;;;;;;;19.50;2.17;;;6.50;99.90;;;;;;4907629;29;20024;-89
2021/12/08 09:06:49;;;;;;;10.55;1.20;;;6.60;99.90;;;;;;4914645;29;20296;-89
2021/12/08 09:09:24;;;;;;;12.32;1.48;;;6.60;99.90;;;;;;4916999;29;20052;-90
2021/12/08 09:12:11;;;;;;;8.93;1.50;;;6.70;99.90;;;;;;4915625;29;20175;-89
2021/12/08 09:14:52;;;;;;;16.60;3.42;;;6.80;99.90;;;;;;4891473;29;20493;-88
2021/12/08 09:17:27;;;;;;;13.60;2.97;;;7.00;99.90;;;;;;4893824;29;20115;-88
2021/12/08 09:20:00;;;;;;;13.95;3.45;;;7.20;99.90;;;;;;4895028;29;20037;-88
2021/12/08 09:22:55;;;;;;;14.05;5.90;;;7.30;99.90;;;;;;4891621;29;20025;-88
2021/12/08 09:25:43;;;;;;;18.45;7.63;;;7.40;99.90;;;;;;4889216;29;20502;-88
2021/12/08 09:28:24;;;;;;;18.77;7.03;;;7.40;99.90;;;;;;4896007;29;20079;-88
2021/12/08 09:30:58;;;;;;;10.70;3.03;;;7.60;99.90;;;;;;4894305;29;20033;-89
2021/12/08 09:33:31;;;;;;;22.98;10.68;;;7.70;99.90;;;;;;4894496;29;20036;-89
2021/12/08 09:36:01;;;;;;;10.20;4.53;;;7.70;99.90;;;;;;4889460;29;20108;-89
2021/12/08 09:38:33;;;;;;;6.90;2.40;;;7.80;99.90;;;;;;4895960;29;20028;-89
2021/12/08 09:41:04;;;;;;;13.60;5.35;;;7.90;99.90;;;;;;4895210;29;20024;-88
2021/12/08 09:43:55;;;;;;;11.05;4.72;;;8.00;99.90;;;;;;4895816;29;20024;-89
2021/12/08 09:46:30;;;;;;;12.07;3.70;;;8.10;99.90;;;;;;4893959;29;20041;-89
2021/12/08 09:48:56;;;;;;;22.98;4.47;;;8.20;99.90;;;;;;4895185;29;20048;-89
2021/12/08 09:51:26;;;;;;;23.00;5.20;;;8.40;99.90;;;;;;4894492;29;20025;-89
2021/12/08 09:53:53;;;;;;;31.58;7.25;;;8.50;99.90;;;;;;4895235;29;20092;-90
2021/12/08 09:56:20;;;;;;;18.75;4.88;;;8.60;99.90;;;;;;4895105;29;20032;-89
2021/12/08 09:58:46;;;;;;;10.27;2.45;;;8.60;99.90;;;;;;4895670;29;20060;-88
2021/12/08 10:01:18;;;;;;;9.95;1.85;;;8.70;99.90;;;;;;4895885;29;20028;-90
2021/12/08 10:03:44;;;;;;;6.25;1.70;;;8.80;99.90;;;;;;4895861;29;20363;-89
2021/12/08 10:06:12;;;;;;;10.02;2.88;;;8.80;99.90;;;;;;4894651;29;20060;-86
2021/12/08 10:08:40;;;;;;;7.68;2.97;;;8.80;99.90;;;;;;4903430;29;20261;-88
2021/12/08 10:11:06;;;;;;;11.35;3.60;;;8.80;99.90;;;;;;4903468;29;20025;-90
2021/12/08 10:13:35;;;;;;;7.60;2.95;;;8.90;99.90;;;;;;4904616;29;20035;-90
2021/12/08 10:16:01;;;;;;;13.65;6.32;;;8.90;99.90;;;;;;4902384;29;20502;-90
2021/12/08 10:18:27;;;;;;;13.00;5.90;;;8.80;99.90;;;;;;4903027;29;20035;-91
2021/12/08 10:20:54;;;;;;;12.88;3.80;;;8.90;99.90;;;;;;4901231;29;20036;-90
2021/12/08 10:23:32;;;;;;;7.63;3.65;;;8.90;99.90;;;;;;4905491;29;20025;-90
2021/12/08 10:26:08;;;;;;;8.57;2.33;;;8.80;99.90;;;;;;4904715;29;20092;-91
2021/12/08 10:28:41;;;;;;;4.97;1.60;;;8.80;99.90;;;;;;4905180;29;20064;-90
2021/12/08 10:31:31;;;;;;;9.10;1.85;;;8.80;99.90;;;;;;4894242;29;20025;-92
2021/12/08 10:34:23;;;;;;;7.85;1.88;;;8.70;99.90;;;;;;4904987;29;20036;-90
2021/12/08 10:36:55;;;;;;;4.95;1.38;;;8.60;99.90;;;;;;4901389;29;20469;-93
2021/12/08 10:39:42;;;;;;;7.10;1.70;;;8.50;99.90;;;;;;4905326;29;20033;-90
2021/12/08 10:42:23;;;;;;;12.70;5.72;;;8.50;99.90;;;;;;4905307;29;20380;-92
2021/12/08 10:45:08;;;;;;;13.25;5.20;;;8.60;99.90;;;;;;4905141;29;20063;-91
2021/12/08 10:47:48;;;;;;;17.67;6.97;;;8.60;99.90;;;;;;4902834;29;20028;-91
2021/12/08 10:56:09;;;;;;;24.27;9.00;;;8.40;99.90;;;;;;4904103;29;20063;-90
2021/12/08 10:58:43;;;;;;;25.00;11.35;;;8.40;99.90;;;;;;4903612;29;20269;-90
2021/12/08 11:01:12;;;;;;;7.45;2.60;;;8.40;99.90;;;;;;4901452;29;20068;-91
2021/12/08 11:03:39;;;;;;;7.68;1.95;;;8.20;99.90;;;;;;4898439;29;20513;-90
2021/12/08 11:06:06;;;;;;;5.57;1.02;;;8.00;99.90;;;;;;4898510;29;20029;-89
2021/12/08 11:08:36;;;;;;;8.32;1.15;;;7.80;99.90;;;;;;4895135;29;20184;-90
2021/12/08 11:11:28;;;;;;;6.93;1.23;;;7.70;99.90;;;;;;4896199;29;20056;-90
2021/12/08 11:14:04;;;;;;;9.63;1.55;;;7.80;99.90;;;;;;4897648;29;20037;-90
2021/12/08 11:16:36;;;;;;;9.13;1.58;;;7.80;99.90;;;;;;4901716;29;20509;-90
2021/12/08 11:19:19;;;;;;;5.40;2.00;;;7.90;99.90;;;;;;4897367;29;20041;-90
2021/12/08 11:21:50;;;;;;;8.30;1.80;;;8.20;99.90;;;;;;4897676;29;20071;-91
2021/12/08 11:24:34;;;;;;;9.25;2.53;;;8.40;99.90;;;;;;4897395;29;20316;-91
2021/12/08 11:27:03;;;;;;;25.25;12.55;;;8.60;99.90;;;;;;4897693;29;20188;-91
2021/12/08 11:29:33;;;;;;;12.65;5.15;;;8.60;99.90;;;;;;4897512;29;20041;-91
2021/12/08 11:32:03;;;;;;;13.68;3.33;;;8.70;99.90;;;;;;4896016;29;20036;-91
2021/12/08 11:34:30;;;;;;;11.55;2.40;;;8.70;99.90;;;;;;4896182;29;20021;-91
2021/12/08 11:37:02;;;;;;;6.88;1.80;;;8.80;99.90;;;;;;4893259;29;20032;-91
2021/12/08 11:39:39;;;;;;;7.22;2.45;;;8.90;99.90;;;;;;4895365;29;20037;-91
2021/12/08 11:42:16;;;;;;;9.23;4.18;;;8.90;99.90;;;;;;4903190;29;20076;-92
2021/12/08 11:44:45;;;;;;;11.43;3.85;;;8.90;99.90;;;;;;4894420;29;20230;-91
2021/12/08 11:47:16;;;;;;;10.35;2.92;;;8.80;99.90;;;;;;4901619;29;20028;-91
2021/12/08 11:49:51;;;;;;;13.10;2.63;;;8.80;99.90;;;;;;4904875;29;20025;-90
2021/12/08 11:52:20;;;;;;;8.68;2.85;;;8.90;99.90;;;;;;4906583;29;20020;-90
2021/12/08 11:54:50;;;;;;;7.55;2.72;;;9.00;99.90;;;;;;4906695;29;20037;-91
2021/12/08 11:57:21;;;;;;;10.68;4.22;;;9.20;99.90;;;;;;4906420;29;20313;-90
2021/12/08 11:59:59;;;;;;;11.07;2.42;;;9.50;99.90;;;;;;4905375;29;20209;-90
2021/12/08 12:02:29;;;;;;;15.35;3.03;;;9.80;99.90;;;;;;4900921;29;20404;-90
2021/12/08 12:04:56;;;;;;;8.40;2.28;;;10.00;99.90;;;;;;4905439;29;20032;-90
2021/12/08 12:07:22;;;;;;;9.07;2.65;;;10.20;99.90;;;;;;4907138;29;20028;-90
2021/12/08 12:09:49;;;;;;;7.53;2.22;;;10.40;99.90;;;;;;4907042;29;20036;-90
2021/12/08 12:12:16;;;;;;;9.23;2.28;;;10.30;99.90;;;;;;4898835;29;20033;-90
2021/12/08 12:14:42;;;;;;;6.57;1.73;;;10.30;99.90;;;;;;4900324;29;20083;-90
2021/12/08 12:17:08;;;;;;;10.80;1.95;;;10.10;99.90;;;;;;4896733;29;20529;-89
2021/12/08 12:20:17;;;;;;;7.80;2.47;;;10.10;99.90;;;;;;4894945;29;20052;-90
2021/12/08 12:23:05;;;;;;;8.32;2.13;;;10.10;99.90;;;;;;4820142;29;20054;-90
2021/12/08 12:26:01;;;;;;;10.98;1.90;;;10.20;99.90;;;;;;4804297;29;20158;-89
2021/12/08 12:28:35;;;;;;;8.93;2.42;;;10.30;99.90;;;;;;4879238;29;20052;-89
2021/12/08 12:31:10;;;;;;;;;;;10.10;99.90;;;;;;4895637;29;20024;-89
2021/12/08 12:33:41;;;;;;;8.30;1.88;;;10.10;99.90;;;;;;4890048;29;19931;-90
2021/12/08 12:36:20;;;;;;;10.70;2.10;;;10.00;99.90;;;;;;4895461;29;20305;-87
2021/12/08 12:38:46;;;;;;;9.25;1.92;;;9.90;99.90;;;;;;4902697;29;20024;-88
2021/12/08 12:41:28;;;;;;;11.93;2.20;;;10.00;99.90;;;;;;4899730;29;20036;-88
2021/12/08 12:44:18;;;;;;;7.57;1.70;;;9.90;99.90;;;;;;4901956;29;20027;-88
2021/12/08 12:47:12;;;;;;;6.85;1.88;;;9.70;99.90;;;;;;4895675;29;20028;-88
2021/12/08 12:49:42;;;;;;;5.15;1.02;;;9.70;99.90;;;;;;4899552;29;20037;-87
2021/12/08 12:52:12;;;;;;;4.80;0.93;;;9.50;99.90;;;;;;4898246;29;20495;-88
2021/12/08 12:54:39;;;;;;;7.03;1.27;;;9.40;99.90;;;;;;4898867;29;20037;-88
2021/12/08 12:57:07;;;;;;;5.47;1.00;;;9.10;99.90;;;;;;4896298;29;20465;-88
2021/12/08 12:59:44;;;;;;;7.97;0.88;;;9.00;99.90;;;;;;4902608;29;20028;-88
2021/12/08 13:02:24;;;;;;;4.88;0.88;;;9.00;99.90;;;;;;4905052;29;20328;-88
2021/12/08 13:05:09;;;;;;;9.90;1.30;;;9.00;99.90;;;;;;4905296;29;20344;-88
2021/12/08 13:07:39;;;;;;;7.68;2.17;;;9.00;99.90;;;;;;4904033;29;20433;-88
2021/12/08 13:10:11;;;;;;;5.65;1.27;;;9.00;99.90;;;;;;4902762;29;20114;-88
2021/12/08 13:12:36;;;;;;;9.25;2.08;;;9.00;99.90;;;;;;4898781;29;20025;-89
2021/12/08 13:15:14;;;;;;;8.68;1.20;;;8.90;99.90;;;;;;4894931;29;20399;-88
2021/12/08 13:18:13;;;;;;;6.13;1.38;;;8.80;99.90;;;;;;4894683;29;20040;-88
2021/12/08 13:20:43;;;;;;;7.30;1.40;;;8.70;99.90;;;;;;4883824;29;20041;-88
2021/12/08 13:23:13;;;;;;;6.60;1.10;;;8.70;99.90;;;;;;4895063;29;20032;-88
2021/12/08 13:25:49;;;;;;;9.05;1.40;;;8.80;99.90;;;;;;4893950;29;20049;-89
2021/12/08 13:28:19;;;;;;;10.15;1.23;;;8.80;99.90;;;;;;4895795;29;20039;-91
2021/12/08 13:31:05;;;;;;;9.50;1.33;;;8.80;99.90;;;;;;4895718;29;20024;-92
2021/12/08 13:33:38;;;;;;;4.57;1.13;;;8.80;99.90;;;;;;4894347;29;20104;-89
2021/12/08 13:36:19;;;;;;;6.83;1.10;;;8.80;99.90;;;;;;4895884;29;20028;-90
2021/12/08 13:38:46;;;;;;;4.95;0.90;;;8.90;99.90;;;;;;4895612;29;20261;-88
2021/12/08 13:41:18;;;;;;;3.95;0.80;;;8.90;99.90;;;;;;4895400;29;20035;-88
2021/12/08 13:43:46;;;;;;;6.03;1.27;;;9.00;99.90;;;;;;4895724;29;20066;-88
2021/12/08 13:46:42;;;;;;;7.85;1.10;;;8.90;99.90;;;;;;4892701;29;20108;-90
2021/12/08 13:49:26;;;;;;;4.68;0.93;;;8.90;99.90;;;;;;4895099;29;20509;-88
2021/12/08 13:52:07;;;;;;;4.90;1.95;;;8.80;99.90;;;;;;4890976;29;20036;-88
2021/12/08 13:54:43;;;;;;;12.57;3.88;;;8.80;99.90;;;;;;4896478;29;20084;-88
2021/12/08 13:57:27;;;;;;;10.82;2.30;;;8.80;99.90;;;;;;4897721;29;20029;-88
2021/12/08 13:59:58;;;;;;;8.15;1.92;;;8.70;99.90;;;;;;4893061;29;20029;-88